»·PEaware :: N196EC KTOA-KSMX

N196EC :: KTOA-KSMX

FLIGHT INFORMATION

Flight Status: Arrived
Operator: Privately registered:
United States
More flights under this callsign
Pilot: Adrián R. (20842)
Aircraft: AERMACCHI WARRIOR
(F260)
More flights by this aircraft type
Origin: KTOA Zamperini
United States
Destination: KSMX Santa Maria Pub/Capt Hancock
United States
More flights between these airports :: More routes between these airports
Route: +LAX170 LIMBO V64 LAX V299 VTU V25 RZS V12 GVO V27 MQO
File this flight plan on PilotEdge
Remarks:
Altitude:
(Current/Filed)
8,000ft
Speed:
(Current/Filed)
150kts
Departed: 29-Jan-19 10:43 AM
Arrived: 29-Jan-19 11:56 AM
Distance/Time
Traveled:
124nm/1:12
Distance/Time
To Go:
Arrived

Flight Plot

Page will automatically refresh every two minutes.

Flight plan parsing failed; only flown route is shown


Map Options




Map Legend


Flown Route
Filed Route
Departure Airport
Arrival Airport
Navaid (VOR, NDB)
Fix

Horizontal Profiles

Position Reports

Time Latitude Longitude Heading Altitude Ground
Speed
29-Jan-19 10:24 33.801601 -118.341420 218 106ft 0kts
29-Jan-19 10:25 33.801601 -118.341420 218 106ft 0kts
29-Jan-19 10:26 33.801601 -118.341420 218 106ft 0kts
29-Jan-19 10:27 33.801601 -118.341420 218 106ft 0kts
29-Jan-19 10:28 33.801601 -118.341420 218 106ft 0kts
29-Jan-19 10:29 33.801601 -118.341420 218 106ft 0kts
29-Jan-19 10:30 33.801601 -118.341420 218 106ft 0kts
29-Jan-19 10:31 33.801601 -118.341420 218 106ft 0kts
29-Jan-19 10:32 33.801601 -118.341420 218 106ft 0kts
29-Jan-19 10:33 33.801601 -118.341420 218 106ft 0kts
29-Jan-19 10:34 33.801601 -118.341420 218 106ft 0kts
29-Jan-19 10:35 33.801354 -118.340826 117 106ft 7kts
29-Jan-19 10:36 33.800952 -118.340142 126 106ft 2kts
29-Jan-19 10:37 33.800841 -118.338767 128 106ft 10kts
29-Jan-19 10:38 33.798139 -118.334691 130 106ft 13kts
29-Jan-19 10:39 33.798916 -118.333228 18 106ft 0kts
29-Jan-19 10:40 33.798916 -118.333228 18 106ft 0kts
29-Jan-19 10:41 33.799280 -118.333092 39 106ft 8kts
29-Jan-19 10:42 33.812418 -118.352339 307 651ft 121kts
29-Jan-19 10:43 33.834175 -118.386514 307 1976ft 133kts
29-Jan-19 10:44 33.857252 -118.422711 308 3000ft 145kts
29-Jan-19 10:45 33.858529 -118.462391 198 2996ft 143kts
29-Jan-19 10:46 33.846484 -118.432701 42 3504ft 138kts
29-Jan-19 10:47 33.874069 -118.403092 41 4791ft 129kts
29-Jan-19 10:48 33.901129 -118.374133 41 5901ft 132kts
29-Jan-19 10:49 33.936155 -118.368541 304 5998ft 162kts
29-Jan-19 10:50 33.932283 -118.420795 258 5995ft 153kts
29-Jan-19 10:51 33.942652 -118.468749 296 6000ft 151kts
29-Jan-19 10:52 33.960180 -118.515469 292 5999ft 153kts
29-Jan-19 10:53 33.976058 -118.563398 291 5999ft 153kts
29-Jan-19 10:54 33.991728 -118.611456 291 6000ft 153kts
29-Jan-19 10:55 34.007245 -118.659438 290 6001ft 153kts
29-Jan-19 10:56 34.022538 -118.707545 290 6004ft 154kts
29-Jan-19 10:57 34.036028 -118.756770 282 6005ft 155kts
29-Jan-19 10:58 34.046937 -118.805535 288 6674ft 141kts
29-Jan-19 11:00 34.059130 -118.849084 288 7662ft 134kts
29-Jan-19 11:01 34.071920 -118.894711 289 8009ft 152kts
29-Jan-19 11:02 34.085702 -118.944071 288 8009ft 156kts
29-Jan-19 11:03 34.099554 -118.993931 288 8008ft 156kts
29-Jan-19 11:04 34.114159 -119.043818 289 8007ft 156kts
29-Jan-19 11:05 34.136327 -119.088929 305 8003ft 156kts
29-Jan-19 11:06 34.160820 -119.132303 304 7999ft 156kts
29-Jan-19 11:07 34.185035 -119.176125 304 7997ft 156kts
29-Jan-19 11:08 34.209048 -119.219773 304 7998ft 155kts
29-Jan-19 11:09 34.233531 -119.263206 306 7999ft 155kts
29-Jan-19 11:10 34.258909 -119.305839 306 7999ft 154kts
29-Jan-19 11:11 34.284174 -119.348225 306 7999ft 154kts
29-Jan-19 11:12 34.309498 -119.390610 306 7999ft 154kts
29-Jan-19 11:13 34.334753 -119.432739 306 8018ft 154kts
29-Jan-19 11:14 34.360113 -119.475336 306 8019ft 156kts
29-Jan-19 11:15 34.382862 -119.519991 297 8018ft 158kts
29-Jan-19 11:16 34.402346 -119.567375 297 8018ft 158kts
29-Jan-19 11:16 34.421845 -119.605031 304 8018ft 157kts
29-Jan-19 11:18 34.449741 -119.657460 302 8018ft 157kts
29-Jan-19 11:19 34.473367 -119.702607 303 8018ft 157kts
29-Jan-19 11:20 34.498025 -119.749472 303 8018ft 157kts
29-Jan-19 11:21 34.511998 -119.799544 272 8025ft 158kts
29-Jan-19 11:22 34.514728 -119.854182 275 8037ft 158kts
29-Jan-19 11:22 34.517952 -119.898761 275 8047ft 158kts
29-Jan-19 11:23 34.521725 -119.952297 275 8060ft 158kts
29-Jan-19 11:24 34.527186 -120.005307 300 8071ft 155kts
29-Jan-19 11:25 34.555310 -120.050704 307 7278ft 178kts
29-Jan-19 11:26 34.586107 -120.100273 307 6278ft 184kts
29-Jan-19 11:27 34.615488 -120.147434 307 6088ft 163kts
29-Jan-19 11:28 34.642558 -120.190927 307 6091ft 158kts
29-Jan-19 11:29 34.668884 -120.233233 307 6091ft 157kts
29-Jan-19 11:30 34.695613 -120.275485 307 6087ft 154kts
29-Jan-19 11:31 34.722000 -120.317063 307 6083ft 153kts
29-Jan-19 11:32 34.748162 -120.358738 307 6076ft 153kts
29-Jan-19 11:33 34.774386 -120.401097 307 6070ft 153kts
29-Jan-19 11:34 34.799942 -120.442792 307 6066ft 153kts
29-Jan-19 11:35 34.825974 -120.485518 307 6064ft 154kts
29-Jan-19 11:36 34.851891 -120.528330 307 6001ft 156kts
29-Jan-19 11:37 34.877561 -120.570782 311 6002ft 154kts
29-Jan-19 11:38 34.905715 -120.610329 312 6002ft 153kts
29-Jan-19 11:39 34.935588 -120.652148 312 5187ft 167kts
29-Jan-19 11:40 34.964829 -120.693192 312 4171ft 156kts
29-Jan-19 11:41 34.992543 -120.731790 312 3988ft 147kts
29-Jan-19 11:42 35.019910 -120.768615 323 3980ft 143kts
29-Jan-19 11:43 35.052965 -120.748507 42 3981ft 148kts
29-Jan-19 11:44 35.082365 -120.712713 42 3981ft 148kts
29-Jan-19 11:45 35.111738 -120.677037 42 3984ft 148kts
29-Jan-19 11:46 35.131883 -120.636218 111 3984ft 153kts
29-Jan-19 11:47 35.093235 -120.619762 172 3987ft 154kts
29-Jan-19 11:48 35.051430 -120.609291 162 3809ft 156kts
29-Jan-19 11:49 35.014427 -120.591538 136 3035ft 148kts
29-Jan-19 11:50 34.986258 -120.557747 133 2559ft 136kts
29-Jan-19 11:51 34.960239 -120.526573 133 1825ft 112kts
29-Jan-19 11:52 34.941190 -120.503714 132 1289ft 91kts
29-Jan-19 11:53 34.922938 -120.481865 132 797ft 92kts
29-Jan-19 11:54 34.905471 -120.460981 132 264ft 67kts
29-Jan-19 11:55 34.900524 -120.453546 3 264ft 9kts
29-Jan-19 11:56 34.900809 -120.453019 125 264ft 9kts
29-Jan-19 11:57 34.900714 -120.451313 248 264ft 3kts
29-Jan-19 11:58 34.900621 -120.451446 227 264ft 0kts

Navigation Log

Ident Type
Flight plan parsing failed, navigation log unavailable